sensor_id;sensor_type;location;lat;lon;timestamp;P1;durP1;ratioP1;P2;durP2;ratioP2
84355;SDS011;74539;43.518;1.504;2024-01-30T00:00:32;3.95;;;2.15;;
84355;SDS011;74539;43.518;1.504;2024-01-30T00:02:58;3.92;;;2.10;;
84355;SDS011;74539;43.518;1.504;2024-01-30T00:05:23;3.05;;;2.47;;
84355;SDS011;74539;43.518;1.504;2024-01-30T00:07:50;3.92;;;2.25;;
84355;SDS011;74539;43.518;1.504;2024-01-30T00:10:16;3.92;;;2.05;;
84355;SDS011;74539;43.518;1.504;2024-01-30T00:12:41;4.95;;;2.10;;
84355;SDS011;74539;43.518;1.504;2024-01-30T00:15:07;3.20;;;2.10;;
84355;SDS011;74539;43.518;1.504;2024-01-30T00:17:35;4.15;;;2.03;;
84355;SDS011;74539;43.518;1.504;2024-01-30T00:20:02;3.22;;;2.03;;
84355;SDS011;74539;43.518;1.504;2024-01-30T00:22:31;3.28;;;2.03;;
84355;SDS011;74539;43.518;1.504;2024-01-30T00:24:57;4.18;;;2.28;;
84355;SDS011;74539;43.518;1.504;2024-01-30T00:27:22;4.18;;;2.50;;
84355;SDS011;74539;43.518;1.504;2024-01-30T00:29:48;4.53;;;2.22;;
84355;SDS011;74539;43.518;1.504;2024-01-30T00:32:14;3.58;;;2.47;;
84355;SDS011;74539;43.518;1.504;2024-01-30T00:34:39;2.80;;;2.10;;
84355;SDS011;74539;43.518;1.504;2024-01-30T00:37:06;4.15;;;2.35;;
84355;SDS011;74539;43.518;1.504;2024-01-30T00:39:32;2.80;;;2.10;;
84355;SDS011;74539;43.518;1.504;2024-01-30T00:41:58;3.50;;;2.33;;
84355;SDS011;74539;43.518;1.504;2024-01-30T00:44:23;3.70;;;2.08;;
84355;SDS011;74539;43.518;1.504;2024-01-30T00:46:49;4.55;;;2.10;;
84355;SDS011;74539;43.518;1.504;2024-01-30T00:49:15;4.47;;;2.30;;
84355;SDS011;74539;43.518;1.504;2024-01-30T00:51:40;4.18;;;2.17;;
84355;SDS011;74539;43.518;1.504;2024-01-30T00:54:06;3.53;;;2.30;;
84355;SDS011;74539;43.518;1.504;2024-01-30T00:56:32;2.95;;;2.25;;
84355;SDS011;74539;43.518;1.504;2024-01-30T00:58:58;3.15;;;2.20;;
84355;SDS011;74539;43.518;1.504;2024-01-30T01:01:24;4.53;;;2.53;;
84355;SDS011;74539;43.518;1.504;2024-01-30T01:03:49;4.68;;;2.47;;
84355;SDS011;74539;43.518;1.504;2024-01-30T01:06:15;3.80;;;2.35;;
84355;SDS011;74539;43.518;1.504;2024-01-30T01:08:41;2.88;;;2.33;;
84355;SDS011;74539;43.518;1.504;2024-01-30T01:11:06;3.95;;;2.05;;
84355;SDS011;74539;43.518;1.504;2024-01-30T01:13:32;4.32;;;2.40;;
84355;SDS011;74539;43.518;1.504;2024-01-30T01:15:58;4.82;;;2.45;;
84355;SDS011;74539;43.518;1.504;2024-01-30T01:18:23;4.43;;;2.65;;
84355;SDS011;74539;43.518;1.504;2024-01-30T01:20:49;3.78;;;2.25;;
84355;SDS011;74539;43.518;1.504;2024-01-30T01:23:15;3.20;;;2.10;;
84355;SDS011;74539;43.518;1.504;2024-01-30T01:25:40;4.95;;;2.50;;
84355;SDS011;74539;43.518;1.504;2024-01-30T01:28:06;3.60;;;2.15;;
84355;SDS011;74539;43.518;1.504;2024-01-30T01:30:31;4.20;;;2.20;;
84355;SDS011;74539;43.518;1.504;2024-01-30T01:32:57;5.03;;;2.50;;
84355;SDS011;74539;43.518;1.504;2024-01-30T01:35:26;4.63;;;2.20;;
84355;SDS011;74539;43.518;1.504;2024-01-30T01:37:53;3.80;;;2.17;;
84355;SDS011;74539;43.518;1.504;2024-01-30T01:40:23;3.35;;;2.22;;
84355;SDS011;74539;43.518;1.504;2024-01-30T01:42:50;4.45;;;2.03;;
84355;SDS011;74539;43.518;1.504;2024-01-30T01:45:20;4.15;;;2.10;;
84355;SDS011;74539;43.518;1.504;2024-01-30T01:47:51;3.33;;;2.20;;
84355;SDS011;74539;43.518;1.504;2024-01-30T01:50:17;2.78;;;1.90;;
84355;SDS011;74539;43.518;1.504;2024-01-30T01:52:48;5.18;;;2.17;;
84355;SDS011;74539;43.518;1.504;2024-01-30T01:55:15;4.07;;;2.08;;
84355;SDS011;74539;43.518;1.504;2024-01-30T01:57:43;3.42;;;2.00;;
84355;SDS011;74539;43.518;1.504;2024-01-30T02:00:10;5.00;;;2.03;;
84355;SDS011;74539;43.518;1.504;2024-01-30T02:02:37;3.47;;;2.35;;
84355;SDS011;74539;43.518;1.504;2024-01-30T02:05:04;3.28;;;2.10;;
84355;SDS011;74539;43.518;1.504;2024-01-30T02:07:30;4.05;;;2.40;;
84355;SDS011;74539;43.518;1.504;2024-01-30T02:09:56;3.55;;;2.38;;
84355;SDS011;74539;43.518;1.504;2024-01-30T02:12:22;4.95;;;2.15;;
84355;SDS011;74539;43.518;1.504;2024-01-30T02:14:48;4.07;;;2.58;;
84355;SDS011;74539;43.518;1.504;2024-01-30T02:17:15;5.25;;;2.50;;
84355;SDS011;74539;43.518;1.504;2024-01-30T02:19:41;4.38;;;2.05;;
84355;SDS011;74539;43.518;1.504;2024-01-30T02:22:07;4.45;;;2.35;;
84355;SDS011;74539;43.518;1.504;2024-01-30T02:24:34;3.53;;;1.95;;
84355;SDS011;74539;43.518;1.504;2024-01-30T02:26:59;3.28;;;2.20;;
84355;SDS011;74539;43.518;1.504;2024-01-30T02:29:25;3.47;;;2.17;;
84355;SDS011;74539;43.518;1.504;2024-01-30T02:31:51;3.58;;;2.15;;
84355;SDS011;74539;43.518;1.504;2024-01-30T02:34:18;3.67;;;2.10;;
84355;SDS011;74539;43.518;1.504;2024-01-30T02:36:44;4.97;;;2.05;;
84355;SDS011;74539;43.518;1.504;2024-01-30T02:39:10;4.82;;;2.20;;
84355;SDS011;74539;43.518;1.504;2024-01-30T02:41:36;3.33;;;1.90;;
84355;SDS011;74539;43.518;1.504;2024-01-30T02:44:02;3.63;;;2.28;;
84355;SDS011;74539;43.518;1.504;2024-01-30T02:46:28;4.15;;;2.25;;
84355;SDS011;74539;43.518;1.504;2024-01-30T02:48:54;2.85;;;2.15;;
84355;SDS011;74539;43.518;1.504;2024-01-30T02:51:20;3.75;;;2.33;;
84355;SDS011;74539;43.518;1.504;2024-01-30T02:53:46;4.60;;;2.30;;
84355;SDS011;74539;43.518;1.504;2024-01-30T02:56:11;5.47;;;2.10;;
84355;SDS011;74539;43.518;1.504;2024-01-30T02:58:39;3.35;;;2.20;;
84355;SDS011;74539;43.518;1.504;2024-01-30T03:01:04;3.95;;;1.90;;
84355;SDS011;74539;43.518;1.504;2024-01-30T03:03:30;3.40;;;2.17;;
84355;SDS011;74539;43.518;1.504;2024-01-30T03:05:56;3.85;;;1.90;;
84355;SDS011;74539;43.518;1.504;2024-01-30T03:08:22;3.53;;;2.20;;
84355;SDS011;74539;43.518;1.504;2024-01-30T03:10:48;5.82;;;2.15;;
84355;SDS011;74539;43.518;1.504;2024-01-30T03:13:14;3.70;;;2.33;;
84355;SDS011;74539;43.518;1.504;2024-01-30T03:15:39;4.38;;;2.00;;
84355;SDS011;74539;43.518;1.504;2024-01-30T03:18:05;4.55;;;2.38;;
84355;SDS011;74539;43.518;1.504;2024-01-30T03:20:31;3.97;;;2.22;;
84355;SDS011;74539;43.518;1.504;2024-01-30T03:22:56;4.03;;;2.30;;
84355;SDS011;74539;43.518;1.504;2024-01-30T03:25:22;3.33;;;1.90;;
84355;SDS011;74539;43.518;1.504;2024-01-30T03:27:48;3.35;;;2.20;;
84355;SDS011;74539;43.518;1.504;2024-01-30T03:30:14;4.20;;;2.10;;
84355;SDS011;74539;43.518;1.504;2024-01-30T03:32:40;4.65;;;2.30;;
84355;SDS011;74539;43.518;1.504;2024-01-30T03:35:05;5.05;;;2.30;;
84355;SDS011;74539;43.518;1.504;2024-01-30T03:37:31;4.82;;;2.13;;
84355;SDS011;74539;43.518;1.504;2024-01-30T03:39:57;3.00;;;1.83;;
84355;SDS011;74539;43.518;1.504;2024-01-30T03:42:22;4.68;;;2.20;;
84355;SDS011;74539;43.518;1.504;2024-01-30T03:44:48;4.07;;;2.00;;
84355;SDS011;74539;43.518;1.504;2024-01-30T03:47:16;4.47;;;2.30;;
84355;SDS011;74539;43.518;1.504;2024-01-30T03:49:42;3.35;;;2.13;;
84355;SDS011;74539;43.518;1.504;2024-01-30T03:52:08;3.00;;;1.98;;
84355;SDS011;74539;43.518;1.504;2024-01-30T03:54:34;3.13;;;2.05;;
84355;SDS011;74539;43.518;1.504;2024-01-30T03:56:59;4.05;;;1.77;;
84355;SDS011;74539;43.518;1.504;2024-01-30T03:59:25;4.40;;;2.10;;
84355;SDS011;74539;43.518;1.504;2024-01-30T04:01:51;4.53;;;2.10;;
84355;SDS011;74539;43.518;1.504;2024-01-30T04:04:17;5.22;;;2.33;;
84355;SDS011;74539;43.518;1.504;2024-01-30T04:06:44;3.60;;;1.83;;
84355;SDS011;74539;43.518;1.504;2024-01-30T04:09:10;3.60;;;2.05;;
84355;SDS011;74539;43.518;1.504;2024-01-30T04:11:36;3.95;;;2.10;;
84355;SDS011;74539;43.518;1.504;2024-01-30T04:14:02;3.20;;;2.20;;
84355;SDS011;74539;43.518;1.504;2024-01-30T04:16:27;4.20;;;2.30;;
84355;SDS011;74539;43.518;1.504;2024-01-30T04:18:53;4.15;;;2.17;;
84355;SDS011;74539;43.518;1.504;2024-01-30T04:21:20;4.53;;;2.17;;
84355;SDS011;74539;43.518;1.504;2024-01-30T04:23:46;4.40;;;2.03;;
84355;SDS011;74539;43.518;1.504;2024-01-30T04:26:13;3.58;;;2.10;;
84355;SDS011;74539;43.518;1.504;2024-01-30T04:28:40;4.13;;;1.90;;
84355;SDS011;74539;43.518;1.504;2024-01-30T04:31:06;4.03;;;2.00;;
84355;SDS011;74539;43.518;1.504;2024-01-30T04:33:32;5.28;;;2.20;;
84355;SDS011;74539;43.518;1.504;2024-01-30T04:35:58;4.78;;;2.15;;
84355;SDS011;74539;43.518;1.504;2024-01-30T04:38:24;3.72;;;1.90;;
84355;SDS011;74539;43.518;1.504;2024-01-30T04:40:49;4.90;;;2.00;;
84355;SDS011;74539;43.518;1.504;2024-01-30T04:43:15;4.72;;;2.03;;
84355;SDS011;74539;43.518;1.504;2024-01-30T04:45:41;4.25;;;2.30;;
84355;SDS011;74539;43.518;1.504;2024-01-30T04:48:07;4.40;;;2.33;;
84355;SDS011;74539;43.518;1.504;2024-01-30T04:50:32;3.90;;;2.10;;
84355;SDS011;74539;43.518;1.504;2024-01-30T04:52:58;4.18;;;1.80;;
84355;SDS011;74539;43.518;1.504;2024-01-30T04:55:24;3.58;;;2.00;;
84355;SDS011;74539;43.518;1.504;2024-01-30T04:57:49;5.32;;;2.00;;
84355;SDS011;74539;43.518;1.504;2024-01-30T05:00:15;3.85;;;2.15;;
84355;SDS011;74539;43.518;1.504;2024-01-30T05:02:41;3.28;;;2.03;;
84355;SDS011;74539;43.518;1.504;2024-01-30T05:05:07;4.80;;;1.98;;
84355;SDS011;74539;43.518;1.504;2024-01-30T05:07:33;3.55;;;1.83;;
84355;SDS011;74539;43.518;1.504;2024-01-30T05:09:59;4.72;;;2.05;;
84355;SDS011;74539;43.518;1.504;2024-01-30T05:12:25;2.85;;;1.95;;
84355;SDS011;74539;43.518;1.504;2024-01-30T05:14:51;4.20;;;1.73;;
84355;SDS011;74539;43.518;1.504;2024-01-30T05:17:17;3.03;;;2.10;;
84355;SDS011;74539;43.518;1.504;2024-01-30T05:19:43;4.80;;;1.88;;
84355;SDS011;74539;43.518;1.504;2024-01-30T05:22:09;3.72;;;2.30;;
84355;SDS011;74539;43.518;1.504;2024-01-30T05:24:35;3.05;;;1.90;;
84355;SDS011;74539;43.518;1.504;2024-01-30T05:27:02;4.05;;;1.90;;
84355;SDS011;74539;43.518;1.504;2024-01-30T05:29:27;3.45;;;1.73;;
84355;SDS011;74539;43.518;1.504;2024-01-30T05:31:53;7.63;;;2.13;;
84355;SDS011;74539;43.518;1.504;2024-01-30T05:34:19;4.78;;;1.80;;
84355;SDS011;74539;43.518;1.504;2024-01-30T05:36:44;4.57;;;1.95;;
84355;SDS011;74539;43.518;1.504;2024-01-30T05:39:10;3.88;;;1.90;;
84355;SDS011;74539;43.518;1.504;2024-01-30T05:41:36;2.55;;;1.80;;
84355;SDS011;74539;43.518;1.504;2024-01-30T05:44:01;3.60;;;1.95;;
84355;SDS011;74539;43.518;1.504;2024-01-30T05:46:27;5.30;;;2.03;;
84355;SDS011;74539;43.518;1.504;2024-01-30T05:48:53;4.22;;;1.92;;
84355;SDS011;74539;43.518;1.504;2024-01-30T05:51:18;3.80;;;2.03;;
84355;SDS011;74539;43.518;1.504;2024-01-30T05:53:44;3.28;;;1.80;;
84355;SDS011;74539;43.518;1.504;2024-01-30T05:56:10;4.07;;;1.88;;
84355;SDS011;74539;43.518;1.504;2024-01-30T05:58:35;2.63;;;1.80;;
84355;SDS011;74539;43.518;1.504;2024-01-30T06:01:02;4.05;;;1.73;;
84355;SDS011;74539;43.518;1.504;2024-01-30T06:03:32;3.78;;;1.65;;
84355;SDS011;74539;43.518;1.504;2024-01-30T06:05:58;4.00;;;1.92;;
84355;SDS011;74539;43.518;1.504;2024-01-30T06:08:24;3.65;;;2.00;;
84355;SDS011;74539;43.518;1.504;2024-01-30T06:10:49;4.43;;;2.08;;
84355;SDS011;74539;43.518;1.504;2024-01-30T06:13:15;2.83;;;1.88;;
84355;SDS011;74539;43.518;1.504;2024-01-30T06:15:40;3.97;;;1.80;;
84355;SDS011;74539;43.518;1.504;2024-01-30T06:18:06;4.03;;;1.90;;
84355;SDS011;74539;43.518;1.504;2024-01-30T06:20:32;4.53;;;1.98;;
84355;SDS011;74539;43.518;1.504;2024-01-30T06:22:57;5.15;;;2.10;;
84355;SDS011;74539;43.518;1.504;2024-01-30T06:25:23;3.28;;;1.88;;
84355;SDS011;74539;43.518;1.504;2024-01-30T06:27:49;3.15;;;1.77;;
84355;SDS011;74539;43.518;1.504;2024-01-30T06:30:14;3.70;;;1.80;;
84355;SDS011;74539;43.518;1.504;2024-01-30T06:32:40;3.95;;;2.03;;
84355;SDS011;74539;43.518;1.504;2024-01-30T06:35:06;3.25;;;1.80;;
84355;SDS011;74539;43.518;1.504;2024-01-30T06:37:32;4.20;;;1.90;;
84355;SDS011;74539;43.518;1.504;2024-01-30T06:39:58;3.78;;;1.67;;
84355;SDS011;74539;43.518;1.504;2024-01-30T06:42:23;4.88;;;1.40;;
84355;SDS011;74539;43.518;1.504;2024-01-30T06:44:49;3.63;;;1.73;;
84355;SDS011;74539;43.518;1.504;2024-01-30T06:47:15;2.72;;;1.60;;
84355;SDS011;74539;43.518;1.504;2024-01-30T06:49:41;3.50;;;1.55;;
84355;SDS011;74539;43.518;1.504;2024-01-30T06:52:07;2.65;;;1.40;;
84355;SDS011;74539;43.518;1.504;2024-01-30T06:54:33;2.40;;;1.70;;
84355;SDS011;74539;43.518;1.504;2024-01-30T06:56:59;3.35;;;1.75;;
84355;SDS011;74539;43.518;1.504;2024-01-30T06:59:25;2.72;;;1.50;;
84355;SDS011;74539;43.518;1.504;2024-01-30T07:01:51;2.20;;;1.40;;
84355;SDS011;74539;43.518;1.504;2024-01-30T07:04:17;3.25;;;1.58;;
84355;SDS011;74539;43.518;1.504;2024-01-30T07:06:43;3.30;;;1.40;;
84355;SDS011;74539;43.518;1.504;2024-01-30T07:09:09;3.33;;;1.42;;
84355;SDS011;74539;43.518;1.504;2024-01-30T07:11:35;3.95;;;1.50;;
84355;SDS011;74539;43.518;1.504;2024-01-30T07:14:00;2.88;;;1.40;;
84355;SDS011;74539;43.518;1.504;2024-01-30T07:16:28;2.60;;;1.42;;
84355;SDS011;74539;43.518;1.504;2024-01-30T07:18:54;1.92;;;1.30;;
84355;SDS011;74539;43.518;1.504;2024-01-30T07:21:21;2.70;;;1.35;;
84355;SDS011;74539;43.518;1.504;2024-01-30T07:23:50;2.85;;;1.33;;
84355;SDS011;74539;43.518;1.504;2024-01-30T07:26:16;3.28;;;1.30;;
84355;SDS011;74539;43.518;1.504;2024-01-30T07:28:41;3.10;;;1.35;;
84355;SDS011;74539;43.518;1.504;2024-01-30T07:31:07;4.10;;;1.38;;
84355;SDS011;74539;43.518;1.504;2024-01-30T07:33:34;2.42;;;1.48;;
84355;SDS011;74539;43.518;1.504;2024-01-30T07:35:59;2.83;;;1.40;;
84355;SDS011;74539;43.518;1.504;2024-01-30T07:38:25;4.10;;;1.40;;
84355;SDS011;74539;43.518;1.504;2024-01-30T07:40:51;2.65;;;1.35;;
84355;SDS011;74539;43.518;1.504;2024-01-30T07:43:17;1.85;;;1.27;;
84355;SDS011;74539;43.518;1.504;2024-01-30T07:45:42;2.50;;;1.42;;
84355;SDS011;74539;43.518;1.504;2024-01-30T07:48:08;2.80;;;1.33;;
84355;SDS011;74539;43.518;1.504;2024-01-30T07:50:33;1.75;;;1.30;;
84355;SDS011;74539;43.518;1.504;2024-01-30T07:52:59;2.55;;;1.38;;
84355;SDS011;74539;43.518;1.504;2024-01-30T07:55:32;3.95;;;1.27;;
84355;SDS011;74539;43.518;1.504;2024-01-30T07:57:58;3.72;;;1.60;;
84355;SDS011;74539;43.518;1.504;2024-01-30T08:00:27;2.75;;;1.50;;
84355;SDS011;74539;43.518;1.504;2024-01-30T08:02:54;4.03;;;1.58;;
84355;SDS011;74539;43.518;1.504;2024-01-30T08:05:20;2.10;;;1.23;;
84355;SDS011;74539;43.518;1.504;2024-01-30T08:07:48;3.13;;;1.40;;
84355;SDS011;74539;43.518;1.504;2024-01-30T08:10:14;5.03;;;1.60;;
84355;SDS011;74539;43.518;1.504;2024-01-30T08:12:40;3.75;;;1.70;;
84355;SDS011;74539;43.518;1.504;2024-01-30T08:15:06;4.45;;;1.60;;
84355;SDS011;74539;43.518;1.504;2024-01-30T08:17:32;5.55;;;1.60;;
84355;SDS011;74539;43.518;1.504;2024-01-30T08:19:58;4.97;;;1.50;;
84355;SDS011;74539;43.518;1.504;2024-01-30T08:22:24;4.00;;;1.50;;
84355;SDS011;74539;43.518;1.504;2024-01-30T08:24:49;3.92;;;1.38;;
84355;SDS011;74539;43.518;1.504;2024-01-30T08:27:15;5.18;;;1.70;;
84355;SDS011;74539;43.518;1.504;2024-01-30T08:29:41;3.05;;;1.60;;
84355;SDS011;74539;43.518;1.504;2024-01-30T08:32:06;3.35;;;1.77;;
84355;SDS011;74539;43.518;1.504;2024-01-30T08:34:32;25.38;;;4.30;;
84355;SDS011;74539;43.518;1.504;2024-01-30T08:36:58;2.83;;;1.48;;
84355;SDS011;74539;43.518;1.504;2024-01-30T08:39:24;5.93;;;1.80;;
84355;SDS011;74539;43.518;1.504;2024-01-30T08:41:50;3.35;;;1.52;;
84355;SDS011;74539;43.518;1.504;2024-01-30T08:44:15;5.43;;;1.77;;
84355;SDS011;74539;43.518;1.504;2024-01-30T08:46:42;3.35;;;1.67;;
84355;SDS011;74539;43.518;1.504;2024-01-30T08:49:09;6.40;;;1.85;;
84355;SDS011;74539;43.518;1.504;2024-01-30T08:51:35;3.72;;;1.58;;
84355;SDS011;74539;43.518;1.504;2024-01-30T08:54:02;3.70;;;1.38;;
84355;SDS011;74539;43.518;1.504;2024-01-30T08:56:27;5.07;;;1.98;;
84355;SDS011;74539;43.518;1.504;2024-01-30T08:58:53;2.70;;;1.30;;
84355;SDS011;74539;43.518;1.504;2024-01-30T09:01:19;4.97;;;1.70;;
84355;SDS011;74539;43.518;1.504;2024-01-30T09:03:45;3.83;;;1.52;;
84355;SDS011;74539;43.518;1.504;2024-01-30T09:06:11;4.68;;;1.58;;
84355;SDS011;74539;43.518;1.504;2024-01-30T09:08:38;4.13;;;1.45;;
84355;SDS011;74539;43.518;1.504;2024-01-30T09:11:13;4.97;;;1.73;;
84355;SDS011;74539;43.518;1.504;2024-01-30T09:13:40;5.63;;;1.70;;
84355;SDS011;74539;43.518;1.504;2024-01-30T09:16:06;4.95;;;1.83;;
84355;SDS011;74539;43.518;1.504;2024-01-30T09:18:31;4.45;;;1.42;;
84355;SDS011;74539;43.518;1.504;2024-01-30T09:20:57;4.55;;;1.60;;
84355;SDS011;74539;43.518;1.504;2024-01-30T09:23:23;5.88;;;1.77;;
84355;SDS011;74539;43.518;1.504;2024-01-30T09:25:49;3.03;;;1.30;;
84355;SDS011;74539;43.518;1.504;2024-01-30T09:28:16;2.90;;;1.50;;
84355;SDS011;74539;43.518;1.504;2024-01-30T09:30:42;4.28;;;1.40;;
84355;SDS011;74539;43.518;1.504;2024-01-30T09:33:08;4.30;;;1.90;;
84355;SDS011;74539;43.518;1.504;2024-01-30T09:35:34;2.30;;;1.50;;
84355;SDS011;74539;43.518;1.504;2024-01-30T09:38:01;2.40;;;1.38;;
84355;SDS011;74539;43.518;1.504;2024-01-30T09:40:27;4.85;;;2.00;;
84355;SDS011;74539;43.518;1.504;2024-01-30T09:42:53;5.10;;;1.80;;
84355;SDS011;74539;43.518;1.504;2024-01-30T09:45:20;2.88;;;1.70;;
84355;SDS011;74539;43.518;1.504;2024-01-30T09:47:50;4.40;;;1.67;;
84355;SDS011;74539;43.518;1.504;2024-01-30T09:50:16;3.20;;;1.60;;
84355;SDS011;74539;43.518;1.504;2024-01-30T09:52:42;4.03;;;1.60;;
84355;SDS011;74539;43.518;1.504;2024-01-30T09:55:09;3.80;;;1.60;;
84355;SDS011;74539;43.518;1.504;2024-01-30T09:57:35;4.60;;;2.00;;
84355;SDS011;74539;43.518;1.504;2024-01-30T10:00:04;3.15;;;1.67;;
84355;SDS011;74539;43.518;1.504;2024-01-30T10:02:33;2.97;;;1.50;;
84355;SDS011;74539;43.518;1.504;2024-01-30T10:05:02;2.00;;;1.40;;
84355;SDS011;74539;43.518;1.504;2024-01-30T10:07:28;2.83;;;1.50;;
84355;SDS011;74539;43.518;1.504;2024-01-30T10:09:55;5.32;;;1.90;;
84355;SDS011;74539;43.518;1.504;2024-01-30T10:12:21;2.75;;;1.60;;
84355;SDS011;74539;43.518;1.504;2024-01-30T10:14:48;4.80;;;1.90;;
84355;SDS011;74539;43.518;1.504;2024-01-30T10:17:13;4.07;;;1.80;;
84355;SDS011;74539;43.518;1.504;2024-01-30T10:19:39;3.15;;;1.50;;
84355;SDS011;74539;43.518;1.504;2024-01-30T10:22:05;2.70;;;1.65;;
84355;SDS011;74539;43.518;1.504;2024-01-30T10:24:32;3.28;;;1.50;;
84355;SDS011;74539;43.518;1.504;2024-01-30T10:26:59;2.97;;;1.50;;
84355;SDS011;74539;43.518;1.504;2024-01-30T10:29:24;2.50;;;1.40;;
84355;SDS011;74539;43.518;1.504;2024-01-30T10:32:03;3.75;;;1.55;;
84355;SDS011;74539;43.518;1.504;2024-01-30T10:34:30;3.60;;;1.52;;
84355;SDS011;74539;43.518;1.504;2024-01-30T10:37:09;2.40;;;1.30;;
84355;SDS011;74539;43.518;1.504;2024-01-30T10:39:38;3.55;;;1.60;;
84355;SDS011;74539;43.518;1.504;2024-01-30T10:42:05;2.90;;;1.50;;
84355;SDS011;74539;43.518;1.504;2024-01-30T10:44:39;2.30;;;1.50;;
84355;SDS011;74539;43.518;1.504;2024-01-30T10:47:14;4.78;;;1.63;;
84355;SDS011;74539;43.518;1.504;2024-01-30T10:49:47;4.57;;;1.60;;
84355;SDS011;74539;43.518;1.504;2024-01-30T10:52:13;2.80;;;1.70;;
84355;SDS011;74539;43.518;1.504;2024-01-30T10:54:42;4.72;;;1.80;;
84355;SDS011;74539;43.518;1.504;2024-01-30T10:57:10;2.85;;;1.45;;
84355;SDS011;74539;43.518;1.504;2024-01-30T10:59:37;2.33;;;1.38;;
84355;SDS011;74539;43.518;1.504;2024-01-30T11:02:04;2.13;;;1.40;;
84355;SDS011;74539;43.518;1.504;2024-01-30T11:04:37;4.15;;;1.40;;
84355;SDS011;74539;43.518;1.504;2024-01-30T11:07:18;3.70;;;1.50;;
84355;SDS011;74539;43.518;1.504;2024-01-30T11:09:50;3.28;;;1.50;;
84355;SDS011;74539;43.518;1.504;2024-01-30T11:12:16;3.17;;;1.45;;
84355;SDS011;74539;43.518;1.504;2024-01-30T11:14:46;2.97;;;1.55;;
84355;SDS011;74539;43.518;1.504;2024-01-30T11:17:12;3.08;;;1.45;;
84355;SDS011;74539;43.518;1.504;2024-01-30T11:19:37;3.53;;;1.33;;
84355;SDS011;74539;43.518;1.504;2024-01-30T11:22:03;3.70;;;1.65;;
84355;SDS011;74539;43.518;1.504;2024-01-30T11:24:36;4.95;;;1.50;;
84355;SDS011;74539;43.518;1.504;2024-01-30T11:27:07;3.65;;;1.63;;
84355;SDS011;74539;43.518;1.504;2024-01-30T11:29:34;3.40;;;1.60;;
84355;SDS011;74539;43.518;1.504;2024-01-30T11:32:00;5.38;;;1.55;;
84355;SDS011;74539;43.518;1.504;2024-01-30T11:34:26;2.30;;;1.30;;
84355;SDS011;74539;43.518;1.504;2024-01-30T11:36:58;3.88;;;1.67;;
84355;SDS011;74539;43.518;1.504;2024-01-30T11:39:27;2.42;;;1.42;;
84355;SDS011;74539;43.518;1.504;2024-01-30T11:41:54;4.10;;;1.35;;
84355;SDS011;74539;43.518;1.504;2024-01-30T11:44:20;3.95;;;1.40;;
84355;SDS011;74539;43.518;1.504;2024-01-30T11:46:50;3.33;;;1.50;;
84355;SDS011;74539;43.518;1.504;2024-01-30T11:49:16;3.22;;;1.50;;
84355;SDS011;74539;43.518;1.504;2024-01-30T11:51:45;3.67;;;1.60;;
84355;SDS011;74539;43.518;1.504;2024-01-30T11:54:13;4.38;;;1.77;;
84355;SDS011;74539;43.518;1.504;2024-01-30T11:56:40;4.32;;;1.60;;
84355;SDS011;74539;43.518;1.504;2024-01-30T11:59:06;2.05;;;1.60;;
84355;SDS011;74539;43.518;1.504;2024-01-30T12:01:32;4.28;;;1.55;;
84355;SDS011;74539;43.518;1.504;2024-01-30T12:03:59;3.40;;;1.58;;
84355;SDS011;74539;43.518;1.504;2024-01-30T12:06:25;3.35;;;1.40;;
84355;SDS011;74539;43.518;1.504;2024-01-30T12:09:00;2.50;;;1.50;;
84355;SDS011;74539;43.518;1.504;2024-01-30T12:11:31;5.68;;;1.45;;
84355;SDS011;74539;43.518;1.504;2024-01-30T12:13:56;3.00;;;1.40;;
84355;SDS011;74539;43.518;1.504;2024-01-30T12:16:22;2.28;;;1.33;;
84355;SDS011;74539;43.518;1.504;2024-01-30T12:18:48;5.28;;;1.58;;
84355;SDS011;74539;43.518;1.504;2024-01-30T12:21:17;5.18;;;1.60;;
84355;SDS011;74539;43.518;1.504;2024-01-30T12:23:44;3.35;;;1.30;;
84355;SDS011;74539;43.518;1.504;2024-01-30T12:26:10;3.67;;;1.30;;
84355;SDS011;74539;43.518;1.504;2024-01-30T12:28:36;4.30;;;1.50;;
84355;SDS011;74539;43.518;1.504;2024-01-30T12:31:02;2.45;;;1.50;;
84355;SDS011;74539;43.518;1.504;2024-01-30T12:33:29;3.25;;;1.50;;
84355;SDS011;74539;43.518;1.504;2024-01-30T12:35:55;3.05;;;1.48;;
84355;SDS011;74539;43.518;1.504;2024-01-30T12:38:24;2.92;;;1.67;;
84355;SDS011;74539;43.518;1.504;2024-01-30T12:40:54;3.67;;;1.60;;
84355;SDS011;74539;43.518;1.504;2024-01-30T12:43:21;2.78;;;1.38;;
84355;SDS011;74539;43.518;1.504;2024-01-30T12:45:47;4.18;;;1.75;;
84355;SDS011;74539;43.518;1.504;2024-01-30T12:48:13;2.90;;;1.60;;
84355;SDS011;74539;43.518;1.504;2024-01-30T12:50:38;3.05;;;1.63;;
84355;SDS011;74539;43.518;1.504;2024-01-30T12:53:04;4.60;;;1.60;;
84355;SDS011;74539;43.518;1.504;2024-01-30T12:55:31;3.08;;;1.55;;
84355;SDS011;74539;43.518;1.504;2024-01-30T12:57:56;2.63;;;1.60;;
84355;SDS011;74539;43.518;1.504;2024-01-30T13:00:22;4.40;;;1.80;;
84355;SDS011;74539;43.518;1.504;2024-01-30T13:02:48;3.85;;;1.83;;
84355;SDS011;74539;43.518;1.504;2024-01-30T13:05:13;2.90;;;1.77;;
84355;SDS011;74539;43.518;1.504;2024-01-30T13:07:39;2.17;;;1.65;;
84355;SDS011;74539;43.518;1.504;2024-01-30T13:10:06;3.28;;;1.90;;
84355;SDS011;74539;43.518;1.504;2024-01-30T13:12:31;2.85;;;1.65;;
84355;SDS011;74539;43.518;1.504;2024-01-30T13:14:58;4.03;;;1.80;;
84355;SDS011;74539;43.518;1.504;2024-01-30T13:17:26;4.63;;;1.80;;
84355;SDS011;74539;43.518;1.504;2024-01-30T13:19:52;4.25;;;1.80;;
84355;SDS011;74539;43.518;1.504;2024-01-30T13:22:19;2.85;;;1.70;;
84355;SDS011;74539;43.518;1.504;2024-01-30T13:24:46;4.95;;;1.80;;
84355;SDS011;74539;43.518;1.504;2024-01-30T13:27:13;3.45;;;1.90;;
84355;SDS011;74539;43.518;1.504;2024-01-30T13:29:39;5.10;;;2.08;;
84355;SDS011;74539;43.518;1.504;2024-01-30T13:32:04;4.28;;;2.00;;
84355;SDS011;74539;43.518;1.504;2024-01-30T13:34:30;2.95;;;1.92;;
84355;SDS011;74539;43.518;1.504;2024-01-30T13:36:56;3.15;;;1.92;;
84355;SDS011;74539;43.518;1.504;2024-01-30T13:39:22;2.90;;;1.95;;
84355;SDS011;74539;43.518;1.504;2024-01-30T13:41:48;3.00;;;1.52;;
84355;SDS011;74539;43.518;1.504;2024-01-30T13:44:15;4.45;;;2.05;;
84355;SDS011;74539;43.518;1.504;2024-01-30T13:46:41;2.58;;;1.65;;
84355;SDS011;74539;43.518;1.504;2024-01-30T13:49:07;2.45;;;1.60;;
84355;SDS011;74539;43.518;1.504;2024-01-30T13:51:33;4.55;;;1.70;;
84355;SDS011;74539;43.518;1.504;2024-01-30T13:53:58;3.05;;;1.80;;
84355;SDS011;74539;43.518;1.504;2024-01-30T13:56:24;2.95;;;1.80;;
84355;SDS011;74539;43.518;1.504;2024-01-30T13:58:51;2.55;;;1.60;;
84355;SDS011;74539;43.518;1.504;2024-01-30T14:01:17;3.67;;;1.70;;
84355;SDS011;74539;43.518;1.504;2024-01-30T14:03:43;4.50;;;1.88;;
84355;SDS011;74539;43.518;1.504;2024-01-30T14:06:09;3.45;;;1.95;;
84355;SDS011;74539;43.518;1.504;2024-01-30T14:08:34;4.18;;;1.83;;
84355;SDS011;74539;43.518;1.504;2024-01-30T14:11:00;3.15;;;1.60;;
84355;SDS011;74539;43.518;1.504;2024-01-30T14:13:26;4.25;;;1.67;;
84355;SDS011;74539;43.518;1.504;2024-01-30T14:15:51;4.20;;;1.90;;
84355;SDS011;74539;43.518;1.504;2024-01-30T14:18:18;3.28;;;1.90;;
84355;SDS011;74539;43.518;1.504;2024-01-30T14:20:43;2.75;;;1.50;;
84355;SDS011;74539;43.518;1.504;2024-01-30T14:23:09;4.03;;;1.80;;
84355;SDS011;74539;43.518;1.504;2024-01-30T14:25:35;1.80;;;1.40;;
84355;SDS011;74539;43.518;1.504;2024-01-30T14:28:00;2.35;;;1.25;;
84355;SDS011;74539;43.518;1.504;2024-01-30T14:30:26;3.05;;;1.90;;
84355;SDS011;74539;43.518;1.504;2024-01-30T14:32:52;4.07;;;1.60;;
84355;SDS011;74539;43.518;1.504;2024-01-30T14:35:17;2.72;;;1.63;;
84355;SDS011;74539;43.518;1.504;2024-01-30T14:37:44;4.15;;;1.70;;
84355;SDS011;74539;43.518;1.504;2024-01-30T14:40:10;2.53;;;1.60;;
84355;SDS011;74539;43.518;1.504;2024-01-30T14:42:36;2.78;;;1.60;;